aviador You're here:

KCBM Decoded Metar

COLOMBUS in MS, USA
Report Time2017-09-25 19:56:00
UTC Time2017-09-25 20:30:22
Flight Rules vfr VFR
Wind050° at 03 kt
W.Decomp.*RWY 13: 0.5 kt HW 3 kt LCW
W.Rank050° ranks 32
Current wind is below 050° avg. (4.6)
Visibility9999 m
Phenomena:N/A
Clouds:N/A
Expected CloudBase > 4,400 ft AGL from Temp-Dew spread
CeilingNone
Temp31°C (ISA +16)
Dew Point20°C (52% RH)
Heat Index33.0°C
QNH1013 hPa
Density Alt2,408 ft
Elevation220 ft
Report Wrong Elevation
Raw Report
KCBM 251956Z AUTO 05003KT 10SM CLR 31/20 A2992 RMK AO2 SLP133
T03050204 TSNO $=

Extra information for KCBM:More info

Metar Taf Metar & Taf Last 4 Metars F.Rules Stats Wind Profile Meteogram Temp Stats Airport Information Weather charts Add Link Nearby VenuesMetar ALERT Operation Metar Decoded Social comments

AIRNAV info for KCBM